Black Earth, Wisconsin
Current Conditions -  °F | °C
As of 7:35 AM on Sunday 23 Nov 2014 (Local Time) from KC29 Reporting Station
Overcast Overcast  
Wind Chill: 50°   Ceiling: 400
Heat Index: 50°   Visibility: 2.5mi
Dew Point: 50°   Wind: 9mph
Humidity: 99%   Direction: 180°S
Pressure: 29.64"   Gusts: NA
Location:  43.14°N, 89.75°W
Report Text: KC29 231335Z AUTO 18008KT 2 1/2SM OVC004 10/10 A2964 RMK AO1 T01010100
Loading
Personal Weather Stations






























Interactive Weather Map New forecast layout! Learn more

10-Day Weather Forecast

Advertisements
Track Severe Weather on mobile